sensor_id;sensor_type;location;lat;lon;timestamp;temperature;humidity
49855;DHT22;35752;52.164;21.244;2022-08-21T00:02:01;21.50;99.90
49855;DHT22;35752;52.164;21.244;2022-08-21T00:04:27;21.40;99.90
49855;DHT22;35752;52.164;21.244;2022-08-21T00:06:52;21.40;99.90
49855;DHT22;35752;52.164;21.244;2022-08-21T00:09:19;21.40;99.90
49855;DHT22;35752;52.164;21.244;2022-08-21T00:11:46;21.30;99.90
49855;DHT22;35752;52.164;21.244;2022-08-21T00:14:12;21.20;99.90
49855;DHT22;35752;52.164;21.244;2022-08-21T00:16:38;21.20;99.90
49855;DHT22;35752;52.164;21.244;2022-08-21T00:19:05;21.20;99.90
49855;DHT22;35752;52.164;21.244;2022-08-21T00:21:32;21.20;99.90
49855;DHT22;35752;52.164;21.244;2022-08-21T00:23:58;21.10;99.90
49855;DHT22;35752;52.164;21.244;2022-08-21T00:26:23;21.10;99.90
49855;DHT22;35752;52.164;21.244;2022-08-21T00:28:49;21.10;99.90
49855;DHT22;35752;52.164;21.244;2022-08-21T00:31:16;21.10;99.90
49855;DHT22;35752;52.164;21.244;2022-08-21T00:33:44;21.00;99.90
49855;DHT22;35752;52.164;21.244;2022-08-21T00:36:10;20.90;99.90
49855;DHT22;35752;52.164;21.244;2022-08-21T00:38:36;20.90;99.90
49855;DHT22;35752;52.164;21.244;2022-08-21T00:41:06;20.90;99.90
49855;DHT22;35752;52.164;21.244;2022-08-21T00:43:35;20.80;99.90
49855;DHT22;35752;52.164;21.244;2022-08-21T00:46:04;20.80;99.90
49855;DHT22;35752;52.164;21.244;2022-08-21T00:48:30;20.80;99.90
49855;DHT22;35752;52.164;21.244;2022-08-21T00:51:10;20.70;99.90
49855;DHT22;35752;52.164;21.244;2022-08-21T00:53:40;20.70;99.90
49855;DHT22;35752;52.164;21.244;2022-08-21T00:56:09;20.60;99.90
49855;DHT22;35752;52.164;21.244;2022-08-21T00:58:37;20.60;99.90
49855;DHT22;35752;52.164;21.244;2022-08-21T01:01:05;20.60;99.90
49855;DHT22;35752;52.164;21.244;2022-08-21T01:03:31;20.60;99.90
49855;DHT22;35752;52.164;21.244;2022-08-21T01:05:58;20.50;99.90
49855;DHT22;35752;52.164;21.244;2022-08-21T01:08:24;20.50;99.90
49855;DHT22;35752;52.164;21.244;2022-08-21T01:10:52;20.50;99.90
49855;DHT22;35752;52.164;21.244;2022-08-21T01:13:19;20.50;99.90
49855;DHT22;35752;52.164;21.244;2022-08-21T01:15:49;20.40;99.90
49855;DHT22;35752;52.164;21.244;2022-08-21T01:18:15;20.40;99.90
49855;DHT22;35752;52.164;21.244;2022-08-21T01:20:45;20.40;99.90
49855;DHT22;35752;52.164;21.244;2022-08-21T01:23:11;20.30;99.90
49855;DHT22;35752;52.164;21.244;2022-08-21T01:25:37;20.30;99.90
49855;DHT22;35752;52.164;21.244;2022-08-21T01:28:12;20.30;99.90
49855;DHT22;35752;52.164;21.244;2022-08-21T01:30:39;20.20;99.90
49855;DHT22;35752;52.164;21.244;2022-08-21T01:33:05;20.10;99.90
49855;DHT22;35752;52.164;21.244;2022-08-21T01:35:31;20.10;99.90
49855;DHT22;35752;52.164;21.244;2022-08-21T01:37:57;20.10;99.90
49855;DHT22;35752;52.164;21.244;2022-08-21T01:40:22;20.10;99.90
49855;DHT22;35752;52.164;21.244;2022-08-21T01:42:48;20.00;99.90
49855;DHT22;35752;52.164;21.244;2022-08-21T01:45:15;20.00;99.90
49855;DHT22;35752;52.164;21.244;2022-08-21T01:47:42;20.00;99.90
49855;DHT22;35752;52.164;21.244;2022-08-21T01:50:11;19.90;99.90
49855;DHT22;35752;52.164;21.244;2022-08-21T01:52:37;19.80;99.90
49855;DHT22;35752;52.164;21.244;2022-08-21T01:55:05;19.80;99.90
49855;DHT22;35752;52.164;21.244;2022-08-21T01:57:31;19.80;99.90
49855;DHT22;35752;52.164;21.244;2022-08-21T01:59:58;19.80;99.90
49855;DHT22;35752;52.164;21.244;2022-08-21T02:02:24;19.70;99.90
49855;DHT22;35752;52.164;21.244;2022-08-21T02:04:49;19.70;99.90
49855;DHT22;35752;52.164;21.244;2022-08-21T02:07:15;19.70;99.90
49855;DHT22;35752;52.164;21.244;2022-08-21T02:09:41;19.70;99.90
49855;DHT22;35752;52.164;21.244;2022-08-21T02:12:11;19.70;99.90
49855;DHT22;35752;52.164;21.244;2022-08-21T02:14:37;19.60;99.90
49855;DHT22;35752;52.164;21.244;2022-08-21T02:17:03;19.60;99.90
49855;DHT22;35752;52.164;21.244;2022-08-21T02:19:28;19.60;99.90
49855;DHT22;35752;52.164;21.244;2022-08-21T02:21:54;19.60;99.90
49855;DHT22;35752;52.164;21.244;2022-08-21T02:24:20;19.60;99.90
49855;DHT22;35752;52.164;21.244;2022-08-21T02:26:45;19.50;99.90
49855;DHT22;35752;52.164;21.244;2022-08-21T02:29:12;19.60;99.90
49855;DHT22;35752;52.164;21.244;2022-08-21T02:31:37;19.50;99.90
49855;DHT22;35752;52.164;21.244;2022-08-21T02:34:03;19.40;99.90
49855;DHT22;35752;52.164;21.244;2022-08-21T02:36:29;19.40;99.90
49855;DHT22;35752;52.164;21.244;2022-08-21T02:38:55;19.40;99.90
49855;DHT22;35752;52.164;21.244;2022-08-21T02:41:21;19.30;99.90
49855;DHT22;35752;52.164;21.244;2022-08-21T02:43:48;19.30;99.90
49855;DHT22;35752;52.164;21.244;2022-08-21T02:46:17;19.20;99.90
49855;DHT22;35752;52.164;21.244;2022-08-21T02:48:43;19.10;99.90
49855;DHT22;35752;52.164;21.244;2022-08-21T02:51:12;19.10;99.90
49855;DHT22;35752;52.164;21.244;2022-08-21T02:53:40;19.00;99.90
49855;DHT22;35752;52.164;21.244;2022-08-21T02:56:08;18.80;99.90
49855;DHT22;35752;52.164;21.244;2022-08-21T02:58:38;18.80;99.90
49855;DHT22;35752;52.164;21.244;2022-08-21T03:01:05;18.90;99.90
49855;DHT22;35752;52.164;21.244;2022-08-21T03:03:33;18.90;99.90
49855;DHT22;35752;52.164;21.244;2022-08-21T03:06:00;18.90;99.90
49855;DHT22;35752;52.164;21.244;2022-08-21T03:08:26;18.80;99.90
49855;DHT22;35752;52.164;21.244;2022-08-21T03:10:52;18.80;99.90
49855;DHT22;35752;52.164;21.244;2022-08-21T03:13:19;18.80;99.90
49855;DHT22;35752;52.164;21.244;2022-08-21T03:15:47;18.80;99.90
49855;DHT22;35752;52.164;21.244;2022-08-21T03:18:13;18.90;99.90
49855;DHT22;35752;52.164;21.244;2022-08-21T03:20:40;18.90;99.90
49855;DHT22;35752;52.164;21.244;2022-08-21T03:23:06;18.90;99.90
49855;DHT22;35752;52.164;21.244;2022-08-21T03:25:34;18.80;99.90
49855;DHT22;35752;52.164;21.244;2022-08-21T03:28:05;18.80;99.90
49855;DHT22;35752;52.164;21.244;2022-08-21T03:30:32;18.80;99.90
49855;DHT22;35752;52.164;21.244;2022-08-21T03:32:58;18.80;99.90
49855;DHT22;35752;52.164;21.244;2022-08-21T03:35:24;18.70;99.90
49855;DHT22;35752;52.164;21.244;2022-08-21T03:37:50;18.70;99.90
49855;DHT22;35752;52.164;21.244;2022-08-21T03:40:18;18.80;99.90
49855;DHT22;35752;52.164;21.244;2022-08-21T03:42:45;18.70;99.90
49855;DHT22;35752;52.164;21.244;2022-08-21T03:45:13;18.80;99.90
49855;DHT22;35752;52.164;21.244;2022-08-21T03:47:39;18.80;99.90
49855;DHT22;35752;52.164;21.244;2022-08-21T03:50:15;18.80;99.90
49855;DHT22;35752;52.164;21.244;2022-08-21T03:52:42;18.80;99.90
49855;DHT22;35752;52.164;21.244;2022-08-21T03:55:08;18.90;99.90
49855;DHT22;35752;52.164;21.244;2022-08-21T03:57:33;18.90;99.90
49855;DHT22;35752;52.164;21.244;2022-08-21T03:59:59;18.90;99.90
49855;DHT22;35752;52.164;21.244;2022-08-21T04:02:25;19.00;99.90
49855;DHT22;35752;52.164;21.244;2022-08-21T04:04:51;19.00;99.90
49855;DHT22;35752;52.164;21.244;2022-08-21T04:07:16;19.00;99.90
49855;DHT22;35752;52.164;21.244;2022-08-21T04:09:43;19.10;99.90
49855;DHT22;35752;52.164;21.244;2022-08-21T04:12:08;19.10;99.90
49855;DHT22;35752;52.164;21.244;2022-08-21T04:14:34;19.20;99.90
49855;DHT22;35752;52.164;21.244;2022-08-21T04:17:00;19.30;99.90
49855;DHT22;35752;52.164;21.244;2022-08-21T04:19:25;19.40;99.90
49855;DHT22;35752;52.164;21.244;2022-08-21T04:21:51;19.50;99.90
49855;DHT22;35752;52.164;21.244;2022-08-21T04:24:17;19.50;99.90
49855;DHT22;35752;52.164;21.244;2022-08-21T04:26:44;19.60;99.90
49855;DHT22;35752;52.164;21.244;2022-08-21T04:29:10;19.70;99.90
49855;DHT22;35752;52.164;21.244;2022-08-21T04:31:36;19.70;99.90
49855;DHT22;35752;52.164;21.244;2022-08-21T04:34:03;19.70;99.90
49855;DHT22;35752;52.164;21.244;2022-08-21T04:36:30;19.80;99.90
49855;DHT22;35752;52.164;21.244;2022-08-21T04:38:56;19.90;99.90
49855;DHT22;35752;52.164;21.244;2022-08-21T04:41:22;19.80;99.90
49855;DHT22;35752;52.164;21.244;2022-08-21T04:43:48;19.90;99.90
49855;DHT22;35752;52.164;21.244;2022-08-21T04:46:15;20.00;99.90
49855;DHT22;35752;52.164;21.244;2022-08-21T04:48:41;20.00;99.90
49855;DHT22;35752;52.164;21.244;2022-08-21T04:51:19;20.10;99.90
49855;DHT22;35752;52.164;21.244;2022-08-21T04:56:26;20.20;99.90
49855;DHT22;35752;52.164;21.244;2022-08-21T04:58:54;20.30;99.90
49855;DHT22;35752;52.164;21.244;2022-08-21T05:01:25;20.30;99.90
49855;DHT22;35752;52.164;21.244;2022-08-21T05:03:56;20.40;99.90
49855;DHT22;35752;52.164;21.244;2022-08-21T05:06:23;20.40;99.90
49855;DHT22;35752;52.164;21.244;2022-08-21T05:08:52;20.60;99.90
49855;DHT22;35752;52.164;21.244;2022-08-21T05:11:18;20.60;99.90
49855;DHT22;35752;52.164;21.244;2022-08-21T05:13:45;20.70;99.90
49855;DHT22;35752;52.164;21.244;2022-08-21T05:16:11;20.70;99.90
49855;DHT22;35752;52.164;21.244;2022-08-21T05:18:37;20.80;99.90
49855;DHT22;35752;52.164;21.244;2022-08-21T05:21:03;21.00;99.90
49855;DHT22;35752;52.164;21.244;2022-08-21T05:23:29;21.10;99.90
49855;DHT22;35752;52.164;21.244;2022-08-21T05:25:55;21.10;99.90
49855;DHT22;35752;52.164;21.244;2022-08-21T05:28:21;21.20;99.90
49855;DHT22;35752;52.164;21.244;2022-08-21T05:30:47;21.30;99.90
49855;DHT22;35752;52.164;21.244;2022-08-21T05:33:13;21.30;99.90
49855;DHT22;35752;52.164;21.244;2022-08-21T05:35:39;21.40;99.90
49855;DHT22;35752;52.164;21.244;2022-08-21T05:38:06;21.50;99.90
49855;DHT22;35752;52.164;21.244;2022-08-21T05:40:32;21.70;99.90
49855;DHT22;35752;52.164;21.244;2022-08-21T05:42:58;21.80;99.90
49855;DHT22;35752;52.164;21.244;2022-08-21T05:45:28;21.90;99.90
49855;DHT22;35752;52.164;21.244;2022-08-21T05:47:54;22.00;99.90
49855;DHT22;35752;52.164;21.244;2022-08-21T05:50:20;22.10;99.90
49855;DHT22;35752;52.164;21.244;2022-08-21T05:52:46;22.20;99.90
49855;DHT22;35752;52.164;21.244;2022-08-21T05:55:12;22.20;99.90
49855;DHT22;35752;52.164;21.244;2022-08-21T05:57:38;22.20;99.90
49855;DHT22;35752;52.164;21.244;2022-08-21T06:00:09;22.20;99.90
49855;DHT22;35752;52.164;21.244;2022-08-21T06:02:38;22.30;99.90
49855;DHT22;35752;52.164;21.244;2022-08-21T06:05:04;22.30;99.90
49855;DHT22;35752;52.164;21.244;2022-08-21T06:07:30;22.40;99.90
49855;DHT22;35752;52.164;21.244;2022-08-21T06:09:55;22.50;99.90
49855;DHT22;35752;52.164;21.244;2022-08-21T06:12:21;22.50;99.90
49855;DHT22;35752;52.164;21.244;2022-08-21T06:14:47;22.60;99.90
49855;DHT22;35752;52.164;21.244;2022-08-21T06:17:13;22.60;99.90
49855;DHT22;35752;52.164;21.244;2022-08-21T06:19:40;22.60;99.90
49855;DHT22;35752;52.164;21.244;2022-08-21T06:22:06;22.60;99.90
49855;DHT22;35752;52.164;21.244;2022-08-21T06:24:32;22.70;99.90
49855;DHT22;35752;52.164;21.244;2022-08-21T06:27:04;22.80;99.90
49855;DHT22;35752;52.164;21.244;2022-08-21T06:29:30;22.90;99.90
49855;DHT22;35752;52.164;21.244;2022-08-21T06:31:56;22.90;99.90
49855;DHT22;35752;52.164;21.244;2022-08-21T06:34:22;22.90;99.90
49855;DHT22;35752;52.164;21.244;2022-08-21T06:36:47;23.00;99.90
49855;DHT22;35752;52.164;21.244;2022-08-21T06:39:13;23.10;99.90
49855;DHT22;35752;52.164;21.244;2022-08-21T06:41:39;23.10;99.90
49855;DHT22;35752;52.164;21.244;2022-08-21T06:44:05;23.20;99.90
49855;DHT22;35752;52.164;21.244;2022-08-21T06:46:31;23.40;99.90
49855;DHT22;35752;52.164;21.244;2022-08-21T06:48:57;23.40;99.90
49855;DHT22;35752;52.164;21.244;2022-08-21T06:51:24;23.50;99.90
49855;DHT22;35752;52.164;21.244;2022-08-21T06:53:53;23.60;99.90
49855;DHT22;35752;52.164;21.244;2022-08-21T06:56:19;23.70;99.90
49855;DHT22;35752;52.164;21.244;2022-08-21T06:58:45;23.80;99.90
49855;DHT22;35752;52.164;21.244;2022-08-21T07:01:11;23.90;99.90
49855;DHT22;35752;52.164;21.244;2022-08-21T07:03:40;24.00;99.90
49855;DHT22;35752;52.164;21.244;2022-08-21T07:06:07;24.10;99.90
49855;DHT22;35752;52.164;21.244;2022-08-21T07:08:34;24.20;99.90
49855;DHT22;35752;52.164;21.244;2022-08-21T07:11:03;24.30;99.90
49855;DHT22;35752;52.164;21.244;2022-08-21T07:13:29;24.20;99.90
49855;DHT22;35752;52.164;21.244;2022-08-21T07:15:56;24.20;99.90
49855;DHT22;35752;52.164;21.244;2022-08-21T07:18:21;24.10;99.90
49855;DHT22;35752;52.164;21.244;2022-08-21T07:20:47;24.10;99.90
49855;DHT22;35752;52.164;21.244;2022-08-21T07:25:46;24.20;99.90
49855;DHT22;35752;52.164;21.244;2022-08-21T07:28:12;24.30;99.90
49855;DHT22;35752;52.164;21.244;2022-08-21T07:30:38;24.30;99.90
49855;DHT22;35752;52.164;21.244;2022-08-21T07:33:03;24.40;99.90
49855;DHT22;35752;52.164;21.244;2022-08-21T07:35:29;24.50;99.90
49855;DHT22;35752;52.164;21.244;2022-08-21T07:37:56;24.60;99.90
49855;DHT22;35752;52.164;21.244;2022-08-21T07:40:22;24.70;99.90
49855;DHT22;35752;52.164;21.244;2022-08-21T07:42:48;24.70;99.90
49855;DHT22;35752;52.164;21.244;2022-08-21T07:45:19;24.80;99.90
49855;DHT22;35752;52.164;21.244;2022-08-21T07:47:45;24.90;99.90
49855;DHT22;35752;52.164;21.244;2022-08-21T07:50:12;25.00;99.90
49855;DHT22;35752;52.164;21.244;2022-08-21T07:52:39;25.10;99.90
49855;DHT22;35752;52.164;21.244;2022-08-21T07:55:06;25.20;99.90
49855;DHT22;35752;52.164;21.244;2022-08-21T07:57:32;25.30;99.90
49855;DHT22;35752;52.164;21.244;2022-08-21T07:59:57;25.40;99.90
49855;DHT22;35752;52.164;21.244;2022-08-21T08:02:25;25.40;99.90
49855;DHT22;35752;52.164;21.244;2022-08-21T08:04:51;25.40;99.90
49855;DHT22;35752;52.164;21.244;2022-08-21T08:07:17;25.40;99.90
49855;DHT22;35752;52.164;21.244;2022-08-21T08:09:43;25.40;99.90
49855;DHT22;35752;52.164;21.244;2022-08-21T08:12:09;25.50;99.90
49855;DHT22;35752;52.164;21.244;2022-08-21T08:14:35;25.60;99.90
49855;DHT22;35752;52.164;21.244;2022-08-21T08:17:01;25.60;99.90
49855;DHT22;35752;52.164;21.244;2022-08-21T08:19:28;25.60;99.90
49855;DHT22;35752;52.164;21.244;2022-08-21T08:21:54;25.70;99.90
49855;DHT22;35752;52.164;21.244;2022-08-21T08:24:19;25.70;99.90
49855;DHT22;35752;52.164;21.244;2022-08-21T08:26:45;25.80;99.90
49855;DHT22;35752;52.164;21.244;2022-08-21T08:29:11;25.80;99.90
49855;DHT22;35752;52.164;21.244;2022-08-21T08:31:36;25.90;99.90
49855;DHT22;35752;52.164;21.244;2022-08-21T08:34:02;26.00;99.90
49855;DHT22;35752;52.164;21.244;2022-08-21T08:36:34;26.00;99.90
49855;DHT22;35752;52.164;21.244;2022-08-21T08:39:01;26.00;99.90
49855;DHT22;35752;52.164;21.244;2022-08-21T08:41:27;26.00;99.90
49855;DHT22;35752;52.164;21.244;2022-08-21T08:44:00;26.10;99.90
49855;DHT22;35752;52.164;21.244;2022-08-21T08:46:35;26.10;99.90
49855;DHT22;35752;52.164;21.244;2022-08-21T08:49:18;26.20;99.90
49855;DHT22;35752;52.164;21.244;2022-08-21T08:54:17;26.30;99.90
49855;DHT22;35752;52.164;21.244;2022-08-21T08:56:44;26.20;99.90
49855;DHT22;35752;52.164;21.244;2022-08-21T08:59:16;26.30;99.90
49855;DHT22;35752;52.164;21.244;2022-08-21T09:01:43;26.30;99.90
49855;DHT22;35752;52.164;21.244;2022-08-21T09:04:10;26.30;99.90
49855;DHT22;35752;52.164;21.244;2022-08-21T09:09:51;26.00;99.90
49855;DHT22;35752;52.164;21.244;2022-08-21T09:21:02;26.70;99.90
49855;DHT22;35752;52.164;21.244;2022-08-21T09:26:19;26.90;99.90
49855;DHT22;35752;52.164;21.244;2022-08-21T09:28:48;27.00;99.90
49855;DHT22;35752;52.164;21.244;2022-08-21T09:33:48;27.20;99.90
49855;DHT22;35752;52.164;21.244;2022-08-21T09:36:30;27.10;99.90
49855;DHT22;35752;52.164;21.244;2022-08-21T09:38:57;27.00;99.90
49855;DHT22;35752;52.164;21.244;2022-08-21T09:41:28;27.00;99.90
49855;DHT22;35752;52.164;21.244;2022-08-21T09:43:54;27.10;99.90
49855;DHT22;35752;52.164;21.244;2022-08-21T09:46:22;27.00;99.90
49855;DHT22;35752;52.164;21.244;2022-08-21T09:48:50;27.10;99.90
49855;DHT22;35752;52.164;21.244;2022-08-21T09:51:19;27.40;99.90
49855;DHT22;35752;52.164;21.244;2022-08-21T09:56:36;27.60;99.90
49855;DHT22;35752;52.164;21.244;2022-08-21T09:59:33;27.50;99.10
49855;DHT22;35752;52.164;21.244;2022-08-21T10:02:00;27.10;99.90
49855;DHT22;35752;52.164;21.244;2022-08-21T10:04:32;27.00;99.70
49855;DHT22;35752;52.164;21.244;2022-08-21T10:07:11;27.20;99.80
49855;DHT22;35752;52.164;21.244;2022-08-21T10:09:38;27.20;99.70
49855;DHT22;35752;52.164;21.244;2022-08-21T10:12:16;27.40;99.90
49855;DHT22;35752;52.164;21.244;2022-08-21T10:17:49;27.70;99.20
49855;DHT22;35752;52.164;21.244;2022-08-21T10:26:04;28.10;96.80
49855;DHT22;35752;52.164;21.244;2022-08-21T10:37:20;27.90;95.70
49855;DHT22;35752;52.164;21.244;2022-08-21T10:45:11;27.70;95.60
49855;DHT22;35752;52.164;21.244;2022-08-21T10:47:47;27.70;95.00
49855;DHT22;35752;52.164;21.244;2022-08-21T10:55:57;27.90;94.80
49855;DHT22;35752;52.164;21.244;2022-08-21T10:58:36;27.90;95.50
49855;DHT22;35752;52.164;21.244;2022-08-21T11:01:49;27.90;96.20
49855;DHT22;35752;52.164;21.244;2022-08-21T11:07:26;27.80;95.80
49855;DHT22;35752;52.164;21.244;2022-08-21T11:09:56;27.60;95.30
49855;DHT22;35752;52.164;21.244;2022-08-21T11:17:49;27.80;96.30
49855;DHT22;35752;52.164;21.244;2022-08-21T11:20:50;27.90;95.50
49855;DHT22;35752;52.164;21.244;2022-08-21T11:23:24;27.90;95.20
49855;DHT22;35752;52.164;21.244;2022-08-21T11:26:00;28.10;95.40
49855;DHT22;35752;52.164;21.244;2022-08-21T11:28:34;28.10;95.50
49855;DHT22;35752;52.164;21.244;2022-08-21T11:34:12;28.20;95.00
49855;DHT22;35752;52.164;21.244;2022-08-21T11:50:54;28.30;94.70
49855;DHT22;35752;52.164;21.244;2022-08-21T11:53:30;28.00;95.00
49855;DHT22;35752;52.164;21.244;2022-08-21T11:56:21;27.80;95.40
49855;DHT22;35752;52.164;21.244;2022-08-21T11:58:56;27.60;95.50
49855;DHT22;35752;52.164;21.244;2022-08-21T12:01:27;27.70;96.00
49855;DHT22;35752;52.164;21.244;2022-08-21T12:04:05;27.80;96.70
49855;DHT22;35752;52.164;21.244;2022-08-21T12:06:33;27.70;96.10
49855;DHT22;35752;52.164;21.244;2022-08-21T12:09:09;27.70;96.60
49855;DHT22;35752;52.164;21.244;2022-08-21T12:11:51;27.90;96.70
49855;DHT22;35752;52.164;21.244;2022-08-21T12:14:36;28.00;96.30
49855;DHT22;35752;52.164;21.244;2022-08-21T12:17:06;28.10;95.10
49855;DHT22;35752;52.164;21.244;2022-08-21T12:19:33;28.20;95.20
49855;DHT22;35752;52.164;21.244;2022-08-21T12:29:56;28.50;94.70
49855;DHT22;35752;52.164;21.244;2022-08-21T12:32:30;28.50;93.90
49855;DHT22;35752;52.164;21.244;2022-08-21T12:38:23;28.50;93.80
49855;DHT22;35752;52.164;21.244;2022-08-21T12:41:48;28.40;94.70
49855;DHT22;35752;52.164;21.244;2022-08-21T12:44:20;28.30;94.20
49855;DHT22;35752;52.164;21.244;2022-08-21T12:49:35;27.90;94.70
49855;DHT22;35752;52.164;21.244;2022-08-21T12:52:22;27.80;95.00
49855;DHT22;35752;52.164;21.244;2022-08-21T12:54:48;27.70;94.80
49855;DHT22;35752;52.164;21.244;2022-08-21T12:57:20;27.60;94.40
49855;DHT22;35752;52.164;21.244;2022-08-21T12:59:46;27.60;94.80
49855;DHT22;35752;52.164;21.244;2022-08-21T13:02:19;27.60;94.80
49855;DHT22;35752;52.164;21.244;2022-08-21T13:04:46;27.70;95.00
49855;DHT22;35752;52.164;21.244;2022-08-21T13:07:16;27.60;96.00
49855;DHT22;35752;52.164;21.244;2022-08-21T13:09:52;27.80;95.90
49855;DHT22;35752;52.164;21.244;2022-08-21T13:12:20;27.80;95.10
49855;DHT22;35752;52.164;21.244;2022-08-21T13:14:48;27.80;95.60
49855;DHT22;35752;52.164;21.244;2022-08-21T13:17:18;28.00;95.40
49855;DHT22;35752;52.164;21.244;2022-08-21T13:20:07;28.00;94.20
49855;DHT22;35752;52.164;21.244;2022-08-21T13:22:41;28.10;94.50
49855;DHT22;35752;52.164;21.244;2022-08-21T13:25:11;28.10;94.30
49855;DHT22;35752;52.164;21.244;2022-08-21T13:27:36;28.20;94.20
49855;DHT22;35752;52.164;21.244;2022-08-21T13:30:07;28.20;94.00
49855;DHT22;35752;52.164;21.244;2022-08-21T13:32:35;28.30;93.80
49855;DHT22;35752;52.164;21.244;2022-08-21T13:35:12;28.40;94.00
49855;DHT22;35752;52.164;21.244;2022-08-21T13:37:40;28.30;93.90
49855;DHT22;35752;52.164;21.244;2022-08-21T13:40:12;28.30;93.70
49855;DHT22;35752;52.164;21.244;2022-08-21T13:42:41;28.30;94.10
49855;DHT22;35752;52.164;21.244;2022-08-21T13:45:13;28.30;94.00
49855;DHT22;35752;52.164;21.244;2022-08-21T13:47:39;28.00;93.70
49855;DHT22;35752;52.164;21.244;2022-08-21T13:50:06;27.80;93.40
49855;DHT22;35752;52.164;21.244;2022-08-21T13:52:33;27.80;94.00
49855;DHT22;35752;52.164;21.244;2022-08-21T13:55:07;27.60;93.40
49855;DHT22;35752;52.164;21.244;2022-08-21T13:57:34;27.60;93.60
49855;DHT22;35752;52.164;21.244;2022-08-21T14:02:46;27.60;93.90
49855;DHT22;35752;52.164;21.244;2022-08-21T14:05:27;27.60;94.20
49855;DHT22;35752;52.164;21.244;2022-08-21T14:08:10;27.70;93.70
49855;DHT22;35752;52.164;21.244;2022-08-21T14:10:43;27.70;94.40
49855;DHT22;35752;52.164;21.244;2022-08-21T14:13:29;27.70;94.20
49855;DHT22;35752;52.164;21.244;2022-08-21T14:16:01;27.80;94.80
49855;DHT22;35752;52.164;21.244;2022-08-21T14:18:28;27.80;94.60
49855;DHT22;35752;52.164;21.244;2022-08-21T14:21:08;27.80;94.20
49855;DHT22;35752;52.164;21.244;2022-08-21T14:23:35;27.80;94.30
49855;DHT22;35752;52.164;21.244;2022-08-21T14:26:03;27.80;94.20
49855;DHT22;35752;52.164;21.244;2022-08-21T14:28:40;27.60;93.70
49855;DHT22;35752;52.164;21.244;2022-08-21T14:31:19;27.50;93.80
49855;DHT22;35752;52.164;21.244;2022-08-21T14:33:46;27.40;94.50
49855;DHT22;35752;52.164;21.244;2022-08-21T14:36:12;27.40;94.30
49855;DHT22;35752;52.164;21.244;2022-08-21T14:38:39;27.30;94.30
49855;DHT22;35752;52.164;21.244;2022-08-21T14:41:35;27.40;94.00
49855;DHT22;35752;52.164;21.244;2022-08-21T14:44:02;27.30;93.80
49855;DHT22;35752;52.164;21.244;2022-08-21T14:46:30;27.40;94.30
49855;DHT22;35752;52.164;21.244;2022-08-21T14:48:56;27.40;93.40
49855;DHT22;35752;52.164;21.244;2022-08-21T14:51:21;27.40;93.80
49855;DHT22;35752;52.164;21.244;2022-08-21T14:53:47;27.50;94.10
49855;DHT22;35752;52.164;21.244;2022-08-21T14:56:14;27.50;94.00
49855;DHT22;35752;52.164;21.244;2022-08-21T14:58:46;27.50;93.80
49855;DHT22;35752;52.164;21.244;2022-08-21T15:01:15;27.40;94.20
49855;DHT22;35752;52.164;21.244;2022-08-21T15:03:42;27.50;94.20
49855;DHT22;35752;52.164;21.244;2022-08-21T15:06:08;27.50;94.60
49855;DHT22;35752;52.164;21.244;2022-08-21T15:08:34;27.60;94.70
49855;DHT22;35752;52.164;21.244;2022-08-21T15:11:02;27.60;94.50
49855;DHT22;35752;52.164;21.244;2022-08-21T15:13:28;27.60;94.90
49855;DHT22;35752;52.164;21.244;2022-08-21T15:15:54;27.50;95.50
49855;DHT22;35752;52.164;21.244;2022-08-21T15:18:25;27.50;95.10
49855;DHT22;35752;52.164;21.244;2022-08-21T15:20:51;27.30;95.00
49855;DHT22;35752;52.164;21.244;2022-08-21T15:23:17;27.30;95.30
49855;DHT22;35752;52.164;21.244;2022-08-21T15:25:45;27.20;95.60
49855;DHT22;35752;52.164;21.244;2022-08-21T15:28:11;27.10;95.30
49855;DHT22;35752;52.164;21.244;2022-08-21T15:30:39;27.00;96.10
49855;DHT22;35752;52.164;21.244;2022-08-21T15:33:06;26.90;97.00
49855;DHT22;35752;52.164;21.244;2022-08-21T15:35:32;26.80;97.70
49855;DHT22;35752;52.164;21.244;2022-08-21T15:37:58;26.70;98.30
49855;DHT22;35752;52.164;21.244;2022-08-21T15:40:24;26.50;98.80
49855;DHT22;35752;52.164;21.244;2022-08-21T15:42:53;26.60;99.40
49855;DHT22;35752;52.164;21.244;2022-08-21T15:45:21;26.60;99.50
49855;DHT22;35752;52.164;21.244;2022-08-21T15:47:49;26.40;99.50
49855;DHT22;35752;52.164;21.244;2022-08-21T15:50:15;26.40;99.80
49855;DHT22;35752;52.164;21.244;2022-08-21T15:52:41;26.30;99.90
49855;DHT22;35752;52.164;21.244;2022-08-21T15:55:08;26.30;99.90
49855;DHT22;35752;52.164;21.244;2022-08-21T15:57:35;26.30;99.90
49855;DHT22;35752;52.164;21.244;2022-08-21T16:00:10;26.10;99.90
49855;DHT22;35752;52.164;21.244;2022-08-21T16:02:39;26.20;99.90
49855;DHT22;35752;52.164;21.244;2022-08-21T16:05:06;26.20;99.90
49855;DHT22;35752;52.164;21.244;2022-08-21T16:07:32;26.10;99.90
49855;DHT22;35752;52.164;21.244;2022-08-21T16:09:58;26.10;99.90
49855;DHT22;35752;52.164;21.244;2022-08-21T16:12:27;26.00;99.90
49855;DHT22;35752;52.164;21.244;2022-08-21T16:14:56;26.00;99.90
49855;DHT22;35752;52.164;21.244;2022-08-21T16:17:34;25.90;99.90
49855;DHT22;35752;52.164;21.244;2022-08-21T16:20:03;25.90;99.90
49855;DHT22;35752;52.164;21.244;2022-08-21T16:22:29;25.80;99.90
49855;DHT22;35752;52.164;21.244;2022-08-21T16:24:55;25.70;99.90
49855;DHT22;35752;52.164;21.244;2022-08-21T16:27:21;25.70;99.90
49855;DHT22;35752;52.164;21.244;2022-08-21T16:29:47;25.60;99.90
49855;DHT22;35752;52.164;21.244;2022-08-21T16:32:14;25.60;99.90
49855;DHT22;35752;52.164;21.244;2022-08-21T16:34:44;25.50;99.90
49855;DHT22;35752;52.164;21.244;2022-08-21T16:37:11;25.50;99.90
49855;DHT22;35752;52.164;21.244;2022-08-21T16:39:37;25.50;99.90
49855;DHT22;35752;52.164;21.244;2022-08-21T16:42:03;25.40;99.90
49855;DHT22;35752;52.164;21.244;2022-08-21T16:44:29;25.40;99.90
49855;DHT22;35752;52.164;21.244;2022-08-21T16:46:55;25.30;99.90
49855;DHT22;35752;52.164;21.244;2022-08-21T16:49:21;25.30;99.90
49855;DHT22;35752;52.164;21.244;2022-08-21T16:51:47;25.30;99.90
49855;DHT22;35752;52.164;21.244;2022-08-21T16:54:13;25.20;99.90
49855;DHT22;35752;52.164;21.244;2022-08-21T16:56:39;25.10;99.90
49855;DHT22;35752;52.164;21.244;2022-08-21T16:59:05;25.10;99.90
49855;DHT22;35752;52.164;21.244;2022-08-21T17:01:32;25.00;99.90
49855;DHT22;35752;52.164;21.244;2022-08-21T17:03:58;25.00;99.90